sensor_id;sensor_type;location;lat;lon;timestamp;P1;durP1;ratioP1;P2;durP2;ratioP2
61675;SDS011;47574;52.090;5.244;2022-10-29T00:00:09;22.1;;;7.0;;
61675;SDS011;47574;52.090;5.244;2022-10-29T00:03:22;20.8;;;5.8;;
61675;SDS011;47574;52.090;5.244;2022-10-29T00:04:59;19.7;;;6.3;;
61675;SDS011;47574;52.090;5.244;2022-10-29T00:06:35;26.7;;;7.1;;
61675;SDS011;47574;52.090;5.244;2022-10-29T00:09:48;18.3;;;6.2;;
61675;SDS011;47574;52.090;5.244;2022-10-29T00:11:24;24.1;;;10.9;;
61675;SDS011;47574;52.090;5.244;2022-10-29T00:13:01;18.41;;;6.7;;
61675;SDS011;47574;52.090;5.244;2022-10-29T00:16:14;22.9;;;6.4;;
61675;SDS011;47574;52.090;5.244;2022-10-29T00:17:54;22.9;;;6.8;;
61675;SDS011;47574;52.090;5.244;2022-10-29T00:19:30;18.41;;;6.5;;
61675;SDS011;47574;52.090;5.244;2022-10-29T00:21:07;19.7;;;7.2;;
61675;SDS011;47574;52.090;5.244;2022-10-29T00:24:22;21.1;;;6.8;;
61675;SDS011;47574;52.090;5.244;2022-10-29T00:25:59;18.8;;;6.5;;
61675;SDS011;47574;52.090;5.244;2022-10-29T00:27:35;17.5;;;6.2;;
61675;SDS011;47574;52.090;5.244;2022-10-29T00:30:48;16.9;;;6.5;;
61675;SDS011;47574;52.090;5.244;2022-10-29T00:32:24;19.3;;;5.9;;
61675;SDS011;47574;52.090;5.244;2022-10-29T00:34:00;15.3;;;5.8;;
61675;SDS011;47574;52.090;5.244;2022-10-29T00:37:12;16.8;;;6.2;;
61675;SDS011;47574;52.090;5.244;2022-10-29T00:38:49;20.6;;;6.3;;
61675;SDS011;47574;52.090;5.244;2022-10-29T00:40:25;19.8;;;8.31;;
61675;SDS011;47574;52.090;5.244;2022-10-29T00:42:03;18.7;;;6.2;;
61675;SDS011;47574;52.090;5.244;2022-10-29T00:45:21;16.8;;;5.8;;
61675;SDS011;47574;52.090;5.244;2022-10-29T00:46:59;16.3;;;5.7;;
61675;SDS011;47574;52.090;5.244;2022-10-29T00:48:39;16.5;;;6.0;;
61675;SDS011;47574;52.090;5.244;2022-10-29T00:50:20;19.5;;;6.2;;
61675;SDS011;47574;52.090;5.244;2022-10-29T00:53:39;18.0;;;7.1;;
61675;SDS011;47574;52.090;5.244;2022-10-29T00:55:21;18.0;;;7.1;;
61675;SDS011;47574;52.090;5.244;2022-10-29T00:56:57;15.8;;;6.1;;
61675;SDS011;47574;52.090;5.244;2022-10-29T01:00:15;17.91;;;6.3;;
61675;SDS011;47574;52.090;5.244;2022-10-29T01:01:54;15.1;;;5.4;;
61675;SDS011;47574;52.090;5.244;2022-10-29T01:03:30;16.3;;;5.9;;
61675;SDS011;47574;52.090;5.244;2022-10-29T01:05:06;17.3;;;5.6;;
61675;SDS011;47574;52.090;5.244;2022-10-29T01:08:23;20.2;;;6.4;;
61675;SDS011;47574;52.090;5.244;2022-10-29T01:09:59;20.9;;;6.5;;
61675;SDS011;47574;52.090;5.244;2022-10-29T01:11:37;16.5;;;6.3;;
61675;SDS011;47574;52.090;5.244;2022-10-29T01:13:27;19.2;;;6.4;;
61675;SDS011;47574;52.090;5.244;2022-10-29T01:17:02;16.2;;;6.4;;
61675;SDS011;47574;52.090;5.244;2022-10-29T01:18:46;15.9;;;5.9;;
61675;SDS011;47574;52.090;5.244;2022-10-29T01:20:38;21.2;;;6.3;;
61675;SDS011;47574;52.090;5.244;2022-10-29T01:23:46;19.7;;;7.2;;
61675;SDS011;47574;52.090;5.244;2022-10-29T01:27:33;19.3;;;6.5;;
61675;SDS011;47574;52.090;5.244;2022-10-29T01:30:11;18.0;;;6.9;;
61675;SDS011;47574;52.090;5.244;2022-10-29T01:33:40;20.11;;;6.9;;
61675;SDS011;47574;52.090;5.244;2022-10-29T01:35:28;19.0;;;7.0;;
61675;SDS011;47574;52.090;5.244;2022-10-29T01:37:13;19.2;;;7.2;;
61675;SDS011;47574;52.090;5.244;2022-10-29T01:39:00;20.3;;;7.5;;
61675;SDS011;47574;52.090;5.244;2022-10-29T01:40:48;19.5;;;7.2;;
61675;SDS011;47574;52.090;5.244;2022-10-29T01:44:17;20.7;;;6.6;;
61675;SDS011;47574;52.090;5.244;2022-10-29T01:46:09;20.41;;;7.6;;
61675;SDS011;47574;52.090;5.244;2022-10-29T01:47:53;19.5;;;6.8;;
61675;SDS011;47574;52.090;5.244;2022-10-29T01:49:33;20.8;;;7.2;;
61675;SDS011;47574;52.090;5.244;2022-10-29T01:51:15;18.41;;;6.5;;
61675;SDS011;47574;52.090;5.244;2022-10-29T01:54:33;19.5;;;6.4;;
61675;SDS011;47574;52.090;5.244;2022-10-29T01:56:09;17.2;;;6.3;;
61675;SDS011;47574;52.090;5.244;2022-10-29T01:57:45;19.91;;;5.9;;
61675;SDS011;47574;52.090;5.244;2022-10-29T02:01:05;20.7;;;6.8;;
61675;SDS011;47574;52.090;5.244;2022-10-29T02:02:58;22.4;;;6.2;;
61675;SDS011;47574;52.090;5.244;2022-10-29T02:04:51;20.41;;;6.5;;
61675;SDS011;47574;52.090;5.244;2022-10-29T02:06:47;14.7;;;6.5;;
61675;SDS011;47574;52.090;5.244;2022-10-29T02:08:35;17.2;;;6.9;;
61675;SDS011;47574;52.090;5.244;2022-10-29T02:10:23;20.11;;;6.4;;
61675;SDS011;47574;52.090;5.244;2022-10-29T02:12:09;17.41;;;6.7;;
61675;SDS011;47574;52.090;5.244;2022-10-29T02:15:41;18.7;;;7.1;;
61675;SDS011;47574;52.090;5.244;2022-10-29T02:17:20;17.0;;;6.0;;
61675;SDS011;47574;52.090;5.244;2022-10-29T02:18:58;17.61;;;6.4;;
61675;SDS011;47574;52.090;5.244;2022-10-29T02:20:35;19.2;;;6.6;;
61675;SDS011;47574;52.090;5.244;2022-10-29T02:23:53;18.91;;;6.9;;
61675;SDS011;47574;52.090;5.244;2022-10-29T02:25:29;22.6;;;6.9;;
61675;SDS011;47574;52.090;5.244;2022-10-29T02:27:07;21.7;;;7.2;;
61675;SDS011;47574;52.090;5.244;2022-10-29T02:28:43;26.0;;;8.6;;
61675;SDS011;47574;52.090;5.244;2022-10-29T02:31:56;19.3;;;7.8;;
61675;SDS011;47574;52.090;5.244;2022-10-29T02:33:32;23.2;;;7.6;;
61675;SDS011;47574;52.090;5.244;2022-10-29T02:35:09;28.9;;;9.1;;
61675;SDS011;47574;52.090;5.244;2022-10-29T02:38:23;32.5;;;9.71;;
61675;SDS011;47574;52.090;5.244;2022-10-29T02:39:59;38.71;;;11.2;;
61675;SDS011;47574;52.090;5.244;2022-10-29T02:41:35;47.8;;;12.0;;
61675;SDS011;47574;52.090;5.244;2022-10-29T02:44:48;50.4;;;13.1;;
61675;SDS011;47574;52.090;5.244;2022-10-29T02:46:24;48.6;;;13.9;;
61675;SDS011;47574;52.090;5.244;2022-10-29T02:48:01;45.9;;;14.3;;
61675;SDS011;47574;52.090;5.244;2022-10-29T02:49:37;71.41;;;14.6;;
61675;SDS011;47574;52.090;5.244;2022-10-29T02:52:51;54.2;;;14.7;;
61675;SDS011;47574;52.090;5.244;2022-10-29T02:54:28;43.4;;;13.6;;
61675;SDS011;47574;52.090;5.244;2022-10-29T02:56:04;35.4;;;12.7;;
61675;SDS011;47574;52.090;5.244;2022-10-29T02:59:19;38.1;;;13.7;;
61675;SDS011;47574;52.090;5.244;2022-10-29T03:00:55;32.9;;;13.9;;
61675;SDS011;47574;52.090;5.244;2022-10-29T03:02:31;32.8;;;13.9;;
61675;SDS011;47574;52.090;5.244;2022-10-29T03:05:45;31.5;;;14.2;;
61675;SDS011;47574;52.090;5.244;2022-10-29T03:07:23;24.7;;;12.7;;
61675;SDS011;47574;52.090;5.244;2022-10-29T03:08:59;25.0;;;13.5;;
61675;SDS011;47574;52.090;5.244;2022-10-29T03:10:35;17.2;;;12.0;;
61675;SDS011;47574;52.090;5.244;2022-10-29T03:13:47;19.5;;;11.4;;
61675;SDS011;47574;52.090;5.244;2022-10-29T03:15:23;15.9;;;11.7;;
61675;SDS011;47574;52.090;5.244;2022-10-29T03:16:59;18.3;;;11.0;;
61675;SDS011;47574;52.090;5.244;2022-10-29T03:20:12;19.3;;;11.5;;
61675;SDS011;47574;52.090;5.244;2022-10-29T03:21:48;16.9;;;10.5;;
61675;SDS011;47574;52.090;5.244;2022-10-29T03:23:24;17.41;;;11.1;;
61675;SDS011;47574;52.090;5.244;2022-10-29T03:26:36;27.6;;;11.4;;
61675;SDS011;47574;52.090;5.244;2022-10-29T03:28:12;21.7;;;10.7;;
61675;SDS011;47574;52.090;5.244;2022-10-29T03:29:48;17.41;;;10.3;;
61675;SDS011;47574;52.090;5.244;2022-10-29T03:33:01;18.0;;;10.3;;
61675;SDS011;47574;52.090;5.244;2022-10-29T03:34:37;15.3;;;9.81;;
61675;SDS011;47574;52.090;5.244;2022-10-29T03:36:13;14.5;;;9.71;;
61675;SDS011;47574;52.090;5.244;2022-10-29T03:37:49;20.11;;;11.2;;
61675;SDS011;47574;52.090;5.244;2022-10-29T03:41:07;16.2;;;9.5;;
61675;SDS011;47574;52.090;5.244;2022-10-29T03:42:43;14.9;;;9.4;;
61675;SDS011;47574;52.090;5.244;2022-10-29T03:44:20;21.7;;;11.4;;
61675;SDS011;47574;52.090;5.244;2022-10-29T03:47:32;16.0;;;10.5;;
61675;SDS011;47574;52.090;5.244;2022-10-29T03:49:08;14.4;;;10.4;;
61675;SDS011;47574;52.090;5.244;2022-10-29T03:50:44;18.61;;;11.3;;
61675;SDS011;47574;52.090;5.244;2022-10-29T03:52:29;20.8;;;12.2;;
61675;SDS011;47574;52.090;5.244;2022-10-29T03:55:41;20.3;;;11.5;;
61675;SDS011;47574;52.090;5.244;2022-10-29T03:57:18;20.0;;;11.7;;
61675;SDS011;47574;52.090;5.244;2022-10-29T03:58:54;22.8;;;11.7;;
61675;SDS011;47574;52.090;5.244;2022-10-29T04:02:06;20.7;;;12.0;;
61675;SDS011;47574;52.090;5.244;2022-10-29T04:03:44;21.2;;;11.1;;
61675;SDS011;47574;52.090;5.244;2022-10-29T04:05:20;17.8;;;10.8;;
61675;SDS011;47574;52.090;5.244;2022-10-29T04:08:32;16.2;;;10.5;;
61675;SDS011;47574;52.090;5.244;2022-10-29T04:10:09;20.8;;;11.0;;
61675;SDS011;47574;52.090;5.244;2022-10-29T04:11:46;21.3;;;11.8;;
61675;SDS011;47574;52.090;5.244;2022-10-29T04:13:22;23.8;;;11.8;;
61675;SDS011;47574;52.090;5.244;2022-10-29T04:16:34;22.5;;;11.9;;
61675;SDS011;47574;52.090;5.244;2022-10-29T04:18:11;26.3;;;12.9;;
61675;SDS011;47574;52.090;5.244;2022-10-29T04:23:00;22.4;;;11.4;;
61675;SDS011;47574;52.090;5.244;2022-10-29T04:24:36;22.2;;;11.0;;
61675;SDS011;47574;52.090;5.244;2022-10-29T04:26:12;17.11;;;11.0;;
61675;SDS011;47574;52.090;5.244;2022-10-29T04:29:24;17.8;;;11.3;;
61675;SDS011;47574;52.090;5.244;2022-10-29T04:31:02;16.2;;;11.1;;
61675;SDS011;47574;52.090;5.244;2022-10-29T04:32:40;14.4;;;10.5;;
61675;SDS011;47574;52.090;5.244;2022-10-29T04:34:17;19.2;;;12.0;;
61675;SDS011;47574;52.090;5.244;2022-10-29T04:37:30;18.3;;;11.9;;
61675;SDS011;47574;52.090;5.244;2022-10-29T04:39:06;18.0;;;11.3;;
61675;SDS011;47574;52.090;5.244;2022-10-29T04:40:43;18.5;;;12.4;;
61675;SDS011;47574;52.090;5.244;2022-10-29T04:43:55;16.61;;;11.5;;
61675;SDS011;47574;52.090;5.244;2022-10-29T04:45:31;17.2;;;11.9;;
61675;SDS011;47574;52.090;5.244;2022-10-29T04:47:07;16.0;;;12.1;;
61675;SDS011;47574;52.090;5.244;2022-10-29T04:50:20;19.8;;;12.4;;
61675;SDS011;47574;52.090;5.244;2022-10-29T04:51:56;19.61;;;13.2;;
61675;SDS011;47574;52.090;5.244;2022-10-29T04:53:32;18.0;;;13.4;;
61675;SDS011;47574;52.090;5.244;2022-10-29T04:55:08;18.7;;;12.8;;
61675;SDS011;47574;52.090;5.244;2022-10-29T04:58:20;18.41;;;12.4;;
61675;SDS011;47574;52.090;5.244;2022-10-29T04:59:57;19.91;;;12.4;;
61675;SDS011;47574;52.090;5.244;2022-10-29T05:01:33;15.9;;;11.5;;
61675;SDS011;47574;52.090;5.244;2022-10-29T05:04:46;19.91;;;12.7;;
61675;SDS011;47574;52.090;5.244;2022-10-29T05:06:22;19.0;;;12.7;;
61675;SDS011;47574;52.090;5.244;2022-10-29T05:07:59;16.11;;;11.4;;
61675;SDS011;47574;52.090;5.244;2022-10-29T05:11:12;18.91;;;12.4;;
61675;SDS011;47574;52.090;5.244;2022-10-29T05:12:54;14.9;;;11.9;;
61675;SDS011;47574;52.090;5.244;2022-10-29T05:14:31;18.11;;;12.3;;
61675;SDS011;47574;52.090;5.244;2022-10-29T05:16:07;17.11;;;12.8;;
61675;SDS011;47574;52.090;5.244;2022-10-29T05:19:19;16.4;;;12.4;;
61675;SDS011;47574;52.090;5.244;2022-10-29T05:20:55;17.5;;;12.5;;
61675;SDS011;47574;52.090;5.244;2022-10-29T05:22:32;17.11;;;11.7;;
61675;SDS011;47574;52.090;5.244;2022-10-29T05:25:48;20.41;;;13.4;;
61675;SDS011;47574;52.090;5.244;2022-10-29T05:27:24;21.1;;;13.9;;
61675;SDS011;47574;52.090;5.244;2022-10-29T05:29:00;18.2;;;12.6;;
61675;SDS011;47574;52.090;5.244;2022-10-29T05:32:14;16.2;;;12.3;;
61675;SDS011;47574;52.090;5.244;2022-10-29T05:33:50;18.8;;;13.2;;
61675;SDS011;47574;52.090;5.244;2022-10-29T05:35:26;16.8;;;12.5;;
61675;SDS011;47574;52.090;5.244;2022-10-29T05:37:03;17.3;;;12.1;;
61675;SDS011;47574;52.090;5.244;2022-10-29T05:40:15;15.6;;;13.0;;
61675;SDS011;47574;52.090;5.244;2022-10-29T05:41:51;18.3;;;13.7;;
61675;SDS011;47574;52.090;5.244;2022-10-29T05:43:28;18.11;;;14.3;;
61675;SDS011;47574;52.090;5.244;2022-10-29T05:46:41;16.2;;;11.9;;
61675;SDS011;47574;52.090;5.244;2022-10-29T05:48:17;16.3;;;12.3;;
61675;SDS011;47574;52.090;5.244;2022-10-29T05:49:53;18.2;;;12.7;;
61675;SDS011;47574;52.090;5.244;2022-10-29T05:53:06;20.3;;;12.8;;
61675;SDS011;47574;52.090;5.244;2022-10-29T05:54:45;18.0;;;13.1;;
61675;SDS011;47574;52.090;5.244;2022-10-29T05:56:21;18.61;;;13.0;;
61675;SDS011;47574;52.090;5.244;2022-10-29T05:57:58;18.8;;;12.3;;
61675;SDS011;47574;52.090;5.244;2022-10-29T06:01:12;20.11;;;13.6;;
61675;SDS011;47574;52.090;5.244;2022-10-29T06:02:48;19.3;;;13.5;;
61675;SDS011;47574;52.090;5.244;2022-10-29T06:04:24;23.2;;;14.2;;
61675;SDS011;47574;52.090;5.244;2022-10-29T06:07:36;18.2;;;13.1;;
61675;SDS011;47574;52.090;5.244;2022-10-29T06:09:13;20.2;;;13.5;;
61675;SDS011;47574;52.090;5.244;2022-10-29T06:10:49;18.91;;;12.6;;
61675;SDS011;47574;52.090;5.244;2022-10-29T06:14:01;20.6;;;14.0;;
61675;SDS011;47574;52.090;5.244;2022-10-29T06:15:37;21.2;;;12.8;;
61675;SDS011;47574;52.090;5.244;2022-10-29T06:17:13;18.7;;;13.0;;
61675;SDS011;47574;52.090;5.244;2022-10-29T06:18:49;18.7;;;12.4;;
61675;SDS011;47574;52.090;5.244;2022-10-29T06:22:03;18.7;;;12.4;;
61675;SDS011;47574;52.090;5.244;2022-10-29T06:23:39;20.7;;;13.7;;
61675;SDS011;47574;52.090;5.244;2022-10-29T06:25:15;21.0;;;14.0;;
61675;SDS011;47574;52.090;5.244;2022-10-29T06:28:28;19.7;;;14.0;;
61675;SDS011;47574;52.090;5.244;2022-10-29T06:30:05;20.3;;;12.9;;
61675;SDS011;47574;52.090;5.244;2022-10-29T06:31:42;20.2;;;13.4;;
61675;SDS011;47574;52.090;5.244;2022-10-29T06:34:56;19.3;;;13.0;;
61675;SDS011;47574;52.090;5.244;2022-10-29T06:36:32;19.8;;;11.7;;
61675;SDS011;47574;52.090;5.244;2022-10-29T06:38:09;16.7;;;11.7;;
61675;SDS011;47574;52.090;5.244;2022-10-29T06:39:45;17.61;;;12.1;;
61675;SDS011;47574;52.090;5.244;2022-10-29T06:43:00;18.5;;;12.2;;
61675;SDS011;47574;52.090;5.244;2022-10-29T06:44:38;18.7;;;12.4;;
61675;SDS011;47574;52.090;5.244;2022-10-29T06:46:15;18.91;;;12.3;;
61675;SDS011;47574;52.090;5.244;2022-10-29T06:49:27;16.3;;;11.9;;
61675;SDS011;47574;52.090;5.244;2022-10-29T06:51:03;19.2;;;12.4;;
61675;SDS011;47574;52.090;5.244;2022-10-29T06:52:39;19.61;;;12.6;;
61675;SDS011;47574;52.090;5.244;2022-10-29T06:55:52;21.0;;;12.2;;
61675;SDS011;47574;52.090;5.244;2022-10-29T06:57:28;19.3;;;12.2;;
61675;SDS011;47574;52.090;5.244;2022-10-29T06:59:05;17.7;;;12.3;;
61675;SDS011;47574;52.090;5.244;2022-10-29T07:00:41;18.11;;;12.3;;
61675;SDS011;47574;52.090;5.244;2022-10-29T07:03:56;20.8;;;13.2;;
61675;SDS011;47574;52.090;5.244;2022-10-29T07:05:32;20.9;;;12.6;;
61675;SDS011;47574;52.090;5.244;2022-10-29T07:07:09;21.6;;;12.5;;
61675;SDS011;47574;52.090;5.244;2022-10-29T07:10:22;16.2;;;12.6;;
61675;SDS011;47574;52.090;5.244;2022-10-29T07:11:59;20.0;;;13.0;;
61675;SDS011;47574;52.090;5.244;2022-10-29T07:13:35;21.9;;;13.5;;
61675;SDS011;47574;52.090;5.244;2022-10-29T07:16:47;23.0;;;13.7;;
61675;SDS011;47574;52.090;5.244;2022-10-29T07:18:24;25.3;;;14.2;;
61675;SDS011;47574;52.090;5.244;2022-10-29T07:20:00;23.0;;;14.6;;
61675;SDS011;47574;52.090;5.244;2022-10-29T07:21:36;23.3;;;14.0;;
61675;SDS011;47574;52.090;5.244;2022-10-29T07:24:49;19.91;;;13.4;;
61675;SDS011;47574;52.090;5.244;2022-10-29T07:26:26;21.7;;;14.2;;
61675;SDS011;47574;52.090;5.244;2022-10-29T07:28:03;24.0;;;13.7;;
61675;SDS011;47574;52.090;5.244;2022-10-29T07:31:16;23.4;;;13.6;;
61675;SDS011;47574;52.090;5.244;2022-10-29T07:32:52;25.1;;;13.4;;
61675;SDS011;47574;52.090;5.244;2022-10-29T07:34:29;24.1;;;13.8;;
61675;SDS011;47574;52.090;5.244;2022-10-29T07:37:41;23.7;;;14.5;;
61675;SDS011;47574;52.090;5.244;2022-10-29T07:39:17;23.2;;;13.9;;
61675;SDS011;47574;52.090;5.244;2022-10-29T07:40:53;28.1;;;15.2;;
61675;SDS011;47574;52.090;5.244;2022-10-29T07:42:29;26.2;;;14.4;;
61675;SDS011;47574;52.090;5.244;2022-10-29T07:45:43;28.6;;;16.0;;
61675;SDS011;47574;52.090;5.244;2022-10-29T07:47:20;27.1;;;16.2;;
61675;SDS011;47574;52.090;5.244;2022-10-29T07:48:56;24.0;;;15.4;;
61675;SDS011;47574;52.090;5.244;2022-10-29T07:52:09;27.9;;;16.5;;
61675;SDS011;47574;52.090;5.244;2022-10-29T07:53:45;25.2;;;15.4;;
61675;SDS011;47574;52.090;5.244;2022-10-29T07:55:21;24.9;;;15.5;;
61675;SDS011;47574;52.090;5.244;2022-10-29T07:58:34;27.2;;;15.9;;
61675;SDS011;47574;52.090;5.244;2022-10-29T08:00:12;24.2;;;15.5;;
61675;SDS011;47574;52.090;5.244;2022-10-29T08:01:49;28.2;;;16.5;;
61675;SDS011;47574;52.090;5.244;2022-10-29T08:03:25;26.5;;;16.4;;
61675;SDS011;47574;52.090;5.244;2022-10-29T08:06:38;24.8;;;16.61;;
61675;SDS011;47574;52.090;5.244;2022-10-29T08:08:16;27.6;;;16.2;;
61675;SDS011;47574;52.090;5.244;2022-10-29T08:09:52;27.8;;;16.11;;
61675;SDS011;47574;52.090;5.244;2022-10-29T08:13:06;27.8;;;15.3;;
61675;SDS011;47574;52.090;5.244;2022-10-29T08:14:42;27.6;;;15.4;;
61675;SDS011;47574;52.090;5.244;2022-10-29T08:16:18;29.6;;;15.6;;
61675;SDS011;47574;52.090;5.244;2022-10-29T08:19:32;28.5;;;15.8;;
61675;SDS011;47574;52.090;5.244;2022-10-29T08:21:08;30.6;;;15.0;;
61675;SDS011;47574;52.090;5.244;2022-10-29T08:22:44;29.2;;;14.8;;
61675;SDS011;47574;52.090;5.244;2022-10-29T08:24:21;26.6;;;15.5;;
61675;SDS011;47574;52.090;5.244;2022-10-29T08:27:34;25.8;;;15.1;;
61675;SDS011;47574;52.090;5.244;2022-10-29T08:29:11;25.0;;;15.5;;
61675;SDS011;47574;52.090;5.244;2022-10-29T08:30:47;24.7;;;13.9;;
61675;SDS011;47574;52.090;5.244;2022-10-29T08:34:01;24.5;;;14.5;;
61675;SDS011;47574;52.090;5.244;2022-10-29T08:35:39;25.2;;;15.2;;
61675;SDS011;47574;52.090;5.244;2022-10-29T08:37:15;26.0;;;15.4;;
61675;SDS011;47574;52.090;5.244;2022-10-29T08:40:28;27.2;;;14.3;;
61675;SDS011;47574;52.090;5.244;2022-10-29T08:42:08;27.0;;;14.2;;
61675;SDS011;47574;52.090;5.244;2022-10-29T08:44:01;22.1;;;13.7;;
61675;SDS011;47574;52.090;5.244;2022-10-29T08:45:56;26.6;;;14.2;;
61675;SDS011;47574;52.090;5.244;2022-10-29T08:47:34;27.1;;;14.3;;
61675;SDS011;47574;52.090;5.244;2022-10-29T08:51:09;20.41;;;14.0;;
61675;SDS011;47574;52.090;5.244;2022-10-29T08:52:52;22.8;;;14.5;;
61675;SDS011;47574;52.090;5.244;2022-10-29T08:54:29;20.6;;;13.3;;
61675;SDS011;47574;52.090;5.244;2022-10-29T08:56:11;25.3;;;13.5;;
61675;SDS011;47574;52.090;5.244;2022-10-29T08:57:53;22.3;;;13.5;;
61675;SDS011;47574;52.090;5.244;2022-10-29T09:01:15;24.5;;;12.9;;
61675;SDS011;47574;52.090;5.244;2022-10-29T09:02:57;21.8;;;12.9;;
61675;SDS011;47574;52.090;5.244;2022-10-29T09:04:34;25.1;;;13.4;;
61675;SDS011;47574;52.090;5.244;2022-10-29T09:06:13;26.7;;;14.1;;
61675;SDS011;47574;52.090;5.244;2022-10-29T09:09:58;22.2;;;14.1;;
61675;SDS011;47574;52.090;5.244;2022-10-29T09:11:48;24.3;;;14.7;;
61675;SDS011;47574;52.090;5.244;2022-10-29T09:13:40;22.3;;;13.4;;
61675;SDS011;47574;52.090;5.244;2022-10-29T09:15:37;21.5;;;14.4;;
61675;SDS011;47574;52.090;5.244;2022-10-29T09:19:10;23.7;;;14.1;;
61675;SDS011;47574;52.090;5.244;2022-10-29T09:21:06;28.2;;;15.7;;
61675;SDS011;47574;52.090;5.244;2022-10-29T09:24:45;26.9;;;15.2;;
61675;SDS011;47574;52.090;5.244;2022-10-29T09:26:37;21.9;;;14.8;;
61675;SDS011;47574;52.090;5.244;2022-10-29T09:28:24;27.4;;;15.9;;
61675;SDS011;47574;52.090;5.244;2022-10-29T09:30:13;23.7;;;15.1;;
61675;SDS011;47574;52.090;5.244;2022-10-29T09:31:52;29.7;;;16.61;;
61675;SDS011;47574;52.090;5.244;2022-10-29T09:33:34;24.8;;;15.4;;
61675;SDS011;47574;52.090;5.244;2022-10-29T09:36:52;25.4;;;14.9;;
61675;SDS011;47574;52.090;5.244;2022-10-29T09:38:30;23.8;;;14.9;;
61675;SDS011;47574;52.090;5.244;2022-10-29T09:40:12;24.1;;;14.8;;
61675;SDS011;47574;52.090;5.244;2022-10-29T09:41:54;21.8;;;15.1;;
61675;SDS011;47574;52.090;5.244;2022-10-29T09:45:27;22.3;;;15.0;;
61675;SDS011;47574;52.090;5.244;2022-10-29T09:47:16;22.5;;;14.7;;
61675;SDS011;47574;52.090;5.244;2022-10-29T09:49:07;24.4;;;15.2;;
61675;SDS011;47574;52.090;5.244;2022-10-29T09:51:00;28.2;;;15.1;;
61675;SDS011;47574;52.090;5.244;2022-10-29T09:52:49;25.3;;;15.0;;
61675;SDS011;47574;52.090;5.244;2022-10-29T09:54:28;22.1;;;13.9;;
61675;SDS011;47574;52.090;5.244;2022-10-29T09:57:44;26.2;;;15.4;;
61675;SDS011;47574;52.090;5.244;2022-10-29T09:59:22;24.1;;;14.8;;
61675;SDS011;47574;52.090;5.244;2022-10-29T10:01:06;27.4;;;15.3;;
61675;SDS011;47574;52.090;5.244;2022-10-29T10:02:42;25.6;;;16.2;;
61675;SDS011;47574;52.090;5.244;2022-10-29T10:06:06;27.3;;;16.7;;
61675;SDS011;47574;52.090;5.244;2022-10-29T10:07:46;26.8;;;15.8;;
61675;SDS011;47574;52.090;5.244;2022-10-29T10:09:55;20.7;;;14.6;;
61675;SDS011;47574;52.090;5.244;2022-10-29T10:11:34;26.8;;;14.6;;
61675;SDS011;47574;52.090;5.244;2022-10-29T10:13:13;26.9;;;14.9;;
61675;SDS011;47574;52.090;5.244;2022-10-29T10:16:55;24.0;;;14.5;;
61675;SDS011;47574;52.090;5.244;2022-10-29T10:18:40;21.8;;;14.1;;
61675;SDS011;47574;52.090;5.244;2022-10-29T10:20:24;24.2;;;14.2;;
61675;SDS011;47574;52.090;5.244;2022-10-29T10:22:15;22.1;;;13.8;;
61675;SDS011;47574;52.090;5.244;2022-10-29T10:23:53;22.8;;;13.8;;
61675;SDS011;47574;52.090;5.244;2022-10-29T10:27:28;20.6;;;13.0;;
61675;SDS011;47574;52.090;5.244;2022-10-29T10:29:10;21.0;;;13.6;;
61675;SDS011;47574;52.090;5.244;2022-10-29T10:31:06;21.1;;;13.8;;
61675;SDS011;47574;52.090;5.244;2022-10-29T10:33:09;19.2;;;12.9;;
61675;SDS011;47574;52.090;5.244;2022-10-29T10:34:48;19.2;;;12.9;;
61675;SDS011;47574;52.090;5.244;2022-10-29T10:39:44;21.4;;;11.9;;
61675;SDS011;47574;52.090;5.244;2022-10-29T10:41:26;21.3;;;12.6;;
61675;SDS011;47574;52.090;5.244;2022-10-29T10:43:05;20.0;;;12.7;;
61675;SDS011;47574;52.090;5.244;2022-10-29T10:44:49;21.9;;;12.0;;
61675;SDS011;47574;52.090;5.244;2022-10-29T10:48:13;18.61;;;11.7;;
61675;SDS011;47574;52.090;5.244;2022-10-29T10:49:51;18.61;;;11.7;;
61675;SDS011;47574;52.090;5.244;2022-10-29T10:51:28;21.5;;;12.1;;
61675;SDS011;47574;52.090;5.244;2022-10-29T10:53:14;17.5;;;11.6;;
61675;SDS011;47574;52.090;5.244;2022-10-29T10:56:35;20.11;;;11.3;;
61675;SDS011;47574;52.090;5.244;2022-10-29T10:58:33;20.7;;;11.5;;
61675;SDS011;47574;52.090;5.244;2022-10-29T11:00:16;18.3;;;11.1;;
61675;SDS011;47574;52.090;5.244;2022-10-29T11:01:54;17.8;;;10.6;;
61675;SDS011;47574;52.090;5.244;2022-10-29T11:03:35;15.7;;;10.6;;
61675;SDS011;47574;52.090;5.244;2022-10-29T11:06:58;18.0;;;11.6;;
61675;SDS011;47574;52.090;5.244;2022-10-29T11:08:39;18.8;;;11.3;;
61675;SDS011;47574;52.090;5.244;2022-10-29T11:10:22;18.2;;;11.0;;
61675;SDS011;47574;52.090;5.244;2022-10-29T11:12:08;21.5;;;10.8;;
61675;SDS011;47574;52.090;5.244;2022-10-29T11:13:48;20.5;;;10.6;;
61675;SDS011;47574;52.090;5.244;2022-10-29T11:17:18;22.0;;;11.8;;
61675;SDS011;47574;52.090;5.244;2022-10-29T11:19:03;20.11;;;11.2;;
61675;SDS011;47574;52.090;5.244;2022-10-29T11:20:49;23.0;;;11.1;;
61675;SDS011;47574;52.090;5.244;2022-10-29T11:22:46;22.0;;;12.3;;
61675;SDS011;47574;52.090;5.244;2022-10-29T11:24:34;19.61;;;10.5;;
61675;SDS011;47574;52.090;5.244;2022-10-29T11:30:09;20.6;;;11.9;;
61675;SDS011;47574;52.090;5.244;2022-10-29T11:31:48;16.7;;;11.3;;
61675;SDS011;47574;52.090;5.244;2022-10-29T11:33:34;19.2;;;11.8;;
61675;SDS011;47574;52.090;5.244;2022-10-29T11:35:22;23.3;;;12.4;;
61675;SDS011;47574;52.090;5.244;2022-10-29T11:37:13;20.6;;;11.6;;
61675;SDS011;47574;52.090;5.244;2022-10-29T11:38:58;19.3;;;12.2;;
61675;SDS011;47574;52.090;5.244;2022-10-29T11:42:26;20.41;;;12.1;;
61675;SDS011;47574;52.090;5.244;2022-10-29T11:44:03;17.2;;;11.3;;
61675;SDS011;47574;52.090;5.244;2022-10-29T11:45:46;18.11;;;11.2;;
61675;SDS011;47574;52.090;5.244;2022-10-29T11:47:39;22.5;;;11.0;;
61675;SDS011;47574;52.090;5.244;2022-10-29T11:49:39;22.3;;;11.2;;
61675;SDS011;47574;52.090;5.244;2022-10-29T11:51:31;17.8;;;11.4;;
61675;SDS011;47574;52.090;5.244;2022-10-29T11:55:13;18.0;;;11.1;;
61675;SDS011;47574;52.090;5.244;2022-10-29T11:56:59;20.41;;;11.6;;
61675;SDS011;47574;52.090;5.244;2022-10-29T11:58:44;21.4;;;11.8;;
61675;SDS011;47574;52.090;5.244;2022-10-29T12:02:24;19.11;;;11.0;;
61675;SDS011;47574;52.090;5.244;2022-10-29T12:04:19;17.41;;;11.2;;
61675;SDS011;47574;52.090;5.244;2022-10-29T12:07:55;19.3;;;11.5;;
61675;SDS011;47574;52.090;5.244;2022-10-29T12:09:58;21.4;;;11.9;;
61675;SDS011;47574;52.090;5.244;2022-10-29T12:12:17;21.1;;;12.2;;
61675;SDS011;47574;52.090;5.244;2022-10-29T12:14:02;20.11;;;11.8;;
61675;SDS011;47574;52.090;5.244;2022-10-29T12:15:53;19.0;;;11.6;;
61675;SDS011;47574;52.090;5.244;2022-10-29T12:17:49;18.3;;;11.4;;
61675;SDS011;47574;52.090;5.244;2022-10-29T12:19:36;20.8;;;12.2;;
61675;SDS011;47574;52.090;5.244;2022-10-29T12:21:25;20.11;;;11.7;;
61675;SDS011;47574;52.090;5.244;2022-10-29T12:23:15;19.8;;;10.7;;
61675;SDS011;47574;52.090;5.244;2022-10-29T12:25:12;22.5;;;12.1;;
61675;SDS011;47574;52.090;5.244;2022-10-29T12:27:06;18.8;;;11.4;;
61675;SDS011;47574;52.090;5.244;2022-10-29T12:30:43;21.6;;;11.5;;
61675;SDS011;47574;52.090;5.244;2022-10-29T12:32:30;21.2;;;10.9;;
61675;SDS011;47574;52.090;5.244;2022-10-29T12:34:14;19.0;;;10.7;;
61675;SDS011;47574;52.090;5.244;2022-10-29T12:36:01;20.7;;;11.0;;
61675;SDS011;47574;52.090;5.244;2022-10-29T12:37:45;22.4;;;11.9;;
61675;SDS011;47574;52.090;5.244;2022-10-29T12:39:43;18.0;;;10.1;;
61675;SDS011;47574;52.090;5.244;2022-10-29T12:43:02;20.7;;;10.6;;
61675;SDS011;47574;52.090;5.244;2022-10-29T12:44:43;16.2;;;10.5;;
61675;SDS011;47574;52.090;5.244;2022-10-29T12:46:27;16.0;;;10.21;;
61675;SDS011;47574;52.090;5.244;2022-10-29T12:48:14;17.8;;;11.1;;
61675;SDS011;47574;52.090;5.244;2022-10-29T12:51:50;20.9;;;10.8;;